createdAt,value
2022-11-14T00:04:17.089Z,132.13
2022-11-14T00:14:22.058Z,129.98
2022-11-14T00:19:25.762Z,125.37
2022-11-14T00:24:28.102Z,150.07
2022-11-14T00:29:30.454Z,147.00
2022-11-14T00:34:34.182Z,140.23
2022-11-14T00:39:36.568Z,140.40
2022-11-14T00:44:38.922Z,155.07
2022-11-14T00:49:42.587Z,134.95
2022-11-14T00:59:47.115Z,158.77
2022-11-14T01:04:50.906Z,154.88
2022-11-14T01:09:53.237Z,158.80
2022-11-14T01:14:55.582Z,140.88
2022-11-14T01:19:59.292Z,138.40
2022-11-14T01:25:01.629Z,150.15
2022-11-14T01:30:04.081Z,153.98
2022-11-14T01:35:08.208Z,163.15
2022-11-14T01:40:11.324Z,183.55
2022-11-14T01:45:32.215Z,166.05
2022-11-14T01:50:35.916Z,174.30
2022-11-14T02:00:40.772Z,162.70
2022-11-14T02:05:45.919Z,170.07
2022-11-14T02:10:48.302Z,181.90
2022-11-14T02:15:51.026Z,198.40
2022-11-14T02:20:54.696Z,183.13
2022-11-14T02:31:00.334Z,159.10
2022-11-14T02:36:04.111Z,197.70
2022-11-14T02:41:06.516Z,184.80
2022-11-14T02:46:08.876Z,176.40
2022-11-14T02:51:12.540Z,182.48
2022-11-14T03:01:21.474Z,160.43
2022-11-14T03:06:25.605Z,146.27
2022-11-14T03:11:27.957Z,175.15
2022-11-14T03:16:30.297Z,185.35
2022-11-14T03:21:34.042Z,164.88
2022-11-14T03:26:36.400Z,169.40
2022-11-14T03:31:38.737Z,169.77
2022-11-14T03:36:42.426Z,168.73
2022-11-14T03:46:47.002Z,184.35
2022-11-14T03:51:50.744Z,152.45
2022-11-14T03:56:53.120Z,167.98
2022-11-14T04:01:56.236Z,159.73
2022-11-14T04:06:59.984Z,163.85
2022-11-14T04:12:02.438Z,192.18
2022-11-14T04:17:04.764Z,182.40
2022-11-14T04:22:08.584Z,171.40
2022-11-14T04:27:11.073Z,167.90
2022-11-14T04:32:13.457Z,184.57
2022-11-14T04:37:17.162Z,189.15
2022-11-14T04:42:19.542Z,171.20
2022-11-14T04:47:21.902Z,188.48
2022-11-14T04:52:25.639Z,184.75
2022-11-14T04:57:27.994Z,176.43
2022-11-14T05:02:31.774Z,161.63
2022-11-14T05:07:35.589Z,160.00
2022-11-14T05:12:38.010Z,172.30
2022-11-14T05:17:40.375Z,166.52
2022-11-14T05:22:44.090Z,159.25
2022-11-14T05:27:46.472Z,179.75
2022-11-14T05:32:48.833Z,161.13
2022-11-14T05:37:57.408Z,162.90
2022-11-14T05:43:01.338Z,158.00
2022-11-14T05:48:03.720Z,175.55
2022-11-14T05:53:07.450Z,149.75
2022-11-14T05:58:09.828Z,172.55
2022-11-14T06:03:13.696Z,160.10
2022-11-14T06:08:17.367Z,141.82
2022-11-14T06:18:21.889Z,140.32
2022-11-14T06:23:25.697Z,154.25
2022-11-14T06:28:28.776Z,153.52
2022-11-14T06:33:36.220Z,159.80
2022-11-14T06:38:40.817Z,147.65
2022-11-14T06:43:44.085Z,168.57
2022-11-14T06:48:47.301Z,151.70
2022-11-14T06:53:50.997Z,141.45
2022-11-14T07:03:56.653Z,143.95
2022-11-14T07:09:00.873Z,147.90
2022-11-14T07:14:04.203Z,151.30
2022-11-14T07:19:09.086Z,140.75
2022-11-14T07:24:12.809Z,145.07
2022-11-14T07:29:15.169Z,142.05
2022-11-14T07:34:17.507Z,129.45
2022-11-14T07:39:21.270Z,129.48
2022-11-14T07:44:23.638Z,133.15
2022-11-14T07:49:26.031Z,123.82
2022-11-14T07:54:29.714Z,134.88
2022-11-14T07:59:32.045Z,80.10
2022-11-14T08:04:34.440Z,65.05
2022-11-14T08:09:38.126Z,46.88
2022-11-14T08:14:40.760Z,38.13
2022-11-14T08:19:43.171Z,37.53
2022-11-14T08:24:46.919Z,33.03
2022-11-14T08:29:51.079Z,32.95
2022-11-14T08:34:53.442Z,32.08
2022-11-14T08:39:57.155Z,28.98
2022-11-14T08:44:59.532Z,28.20
2022-11-14T08:50:01.893Z,28.67
2022-11-14T08:55:06.049Z,29.10
2022-11-14T09:00:09.169Z,28.42
2022-11-14T09:05:11.643Z,26.65
2022-11-14T09:10:16.021Z,25.50
2022-11-14T09:15:18.353Z,25.27
2022-11-14T09:20:20.708Z,22.05
2022-11-14T09:25:26.386Z,22.70
2022-11-14T09:30:28.738Z,22.17
2022-11-14T09:35:31.631Z,22.73
2022-11-14T09:40:41.762Z,24.48
2022-11-14T09:45:48.016Z,20.58
2022-11-14T09:50:54.490Z,19.45
2022-11-14T09:55:58.587Z,20.65
2022-11-14T10:01:09.147Z,17.95
2022-11-14T10:06:18.826Z,20.55
2022-11-14T10:11:27.411Z,18.55
2022-11-14T10:16:36.768Z,20.17
2022-11-14T10:21:47.664Z,17.65
2022-11-14T10:26:55.870Z,17.02
2022-11-14T10:32:02.531Z,16.50
2022-11-14T10:37:10.859Z,18.23
2022-11-14T10:42:16.510Z,18.50
2022-11-14T10:47:21.773Z,20.27
2022-11-14T10:52:27.448Z,17.63
2022-11-14T10:57:31.186Z,16.60
2022-11-14T11:02:47.762Z,17.88
2022-11-14T11:08:42.157Z,17.13
2022-11-14T11:13:33.672Z,15.88
2022-11-14T11:18:36.735Z,17.40
2022-11-14T11:28:42.685Z,16.48
2022-11-14T11:33:45.104Z,16.58
2022-11-14T11:38:48.265Z,17.60
2022-11-14T11:49:03.862Z,21.02
2022-11-14T11:54:11.608Z,18.88
2022-11-14T11:59:21.695Z,18.42
2022-11-14T12:04:25.561Z,15.30
2022-11-14T12:09:55.691Z,18.45
2022-11-14T12:14:56.563Z,19.08
2022-11-14T12:20:13.852Z,17.23
2022-11-14T12:25:27.605Z,19.45
2022-11-14T12:35:33.298Z,18.75
2022-11-14T12:40:38.634Z,21.17
2022-11-14T12:46:00.410Z,20.60
2022-11-14T12:51:03.738Z,21.63
2022-11-14T12:56:12.022Z,22.63
2022-11-14T13:01:25.507Z,22.10
2022-11-14T13:06:30.608Z,21.42
2022-11-14T13:12:00.468Z,23.52
2022-11-14T13:17:28.466Z,22.98
2022-11-14T13:22:37.551Z,21.85
2022-11-14T13:33:07.410Z,17.15
2022-11-14T13:38:16.828Z,19.67
2022-11-14T13:43:23.010Z,15.85
2022-11-14T13:48:44.797Z,16.70
2022-11-14T13:53:49.714Z,19.85
2022-11-14T13:59:03.289Z,20.52
2022-11-14T14:04:12.738Z,19.52
2022-11-14T14:09:20.283Z,21.25
2022-11-14T14:14:32.710Z,22.08
2022-11-14T14:19:38.845Z,20.98
2022-11-14T14:24:47.153Z,20.63
2022-11-14T14:29:54.785Z,19.38
2022-11-14T14:34:59.465Z,19.70
2022-11-14T14:40:02.781Z,21.30
2022-11-14T14:45:14.697Z,20.88
2022-11-14T14:50:18.510Z,20.40
2022-11-14T14:55:22.068Z,20.02
2022-11-14T15:05:30.632Z,17.23
2022-11-14T15:10:33.201Z,17.40
2022-11-14T15:15:35.703Z,17.80
2022-11-14T15:20:39.377Z,20.38
2022-11-14T15:25:42.695Z,20.00
2022-11-14T15:30:56.796Z,20.85
2022-11-14T15:41:18.456Z,19.77
2022-11-14T15:46:27.748Z,35.67
2022-11-14T15:51:40.311Z,21.55
2022-11-14T15:56:44.012Z,20.20
2022-11-14T16:01:47.399Z,21.25
2022-11-14T16:11:53.495Z,22.88
2022-11-14T16:16:55.868Z,21.27
2022-11-14T16:21:59.163Z,21.77
2022-11-14T16:27:02.906Z,21.35
2022-11-14T16:32:05.406Z,18.75
2022-11-14T16:37:12.334Z,24.02
2022-11-14T16:42:16.318Z,21.60
2022-11-14T16:47:19.493Z,24.65
2022-11-14T16:52:22.304Z,20.20
2022-11-14T16:57:26.050Z,18.23
2022-11-14T17:02:28.423Z,21.20
2022-11-14T17:07:33.351Z,20.80
2022-11-14T17:12:39.650Z,24.55
2022-11-14T17:17:46.479Z,24.13
2022-11-14T17:22:48.915Z,22.55
2022-11-14T17:27:52.720Z,26.10
2022-11-14T17:32:56.641Z,37.67
2022-11-14T17:38:21.060Z,32.22
2022-11-14T17:43:31.838Z,34.25
2022-11-14T17:48:37.026Z,39.53
2022-11-14T17:53:42.963Z,28.73
2022-11-14T17:58:52.184Z,29.10
2022-11-14T18:04:00.372Z,39.83
2022-11-14T18:09:14.028Z,31.75
2022-11-14T18:14:20.641Z,28.00
2022-11-14T18:19:24.805Z,22.52
2022-11-14T18:24:28.917Z,28.13
2022-11-14T18:29:34.023Z,28.25
2022-11-14T18:34:42.097Z,24.08
2022-11-14T18:39:47.563Z,21.67
2022-11-14T18:44:56.197Z,25.13
2022-11-14T18:50:02.914Z,24.10
2022-11-14T18:55:13.531Z,23.63
2022-11-14T19:00:32.951Z,25.38
2022-11-14T19:05:37.387Z,25.58
2022-11-14T19:10:41.025Z,24.98
2022-11-14T19:15:44.971Z,26.02
2022-11-14T19:20:57.859Z,26.52
2022-11-14T19:26:01.307Z,27.58
2022-11-14T19:36:09.074Z,25.33
2022-11-14T19:41:18.922Z,22.75
2022-11-14T19:46:26.762Z,23.60
2022-11-14T19:51:33.571Z,24.25
2022-11-14T19:56:36.398Z,24.35
2022-11-14T20:01:38.986Z,24.60
2022-11-14T20:06:43.115Z,26.52
2022-11-14T20:11:48.467Z,23.90
2022-11-14T20:16:52.904Z,22.77
2022-11-14T20:22:00.015Z,25.15
2022-11-14T20:27:06.463Z,23.95
2022-11-14T20:32:13.044Z,25.25
2022-11-14T20:37:20.584Z,23.92
2022-11-14T20:42:24.160Z,22.98
2022-11-14T20:47:28.450Z,27.13
2022-11-14T20:52:38.239Z,32.05
2022-11-14T20:57:41.848Z,28.75
2022-11-14T21:02:45.514Z,32.13
2022-11-14T21:13:19.477Z,28.50
2022-11-14T21:18:24.929Z,34.55
2022-11-14T21:23:28.994Z,30.77
2022-11-14T21:28:35.378Z,31.42
2022-11-14T21:33:39.192Z,32.95
2022-11-14T21:38:48.050Z,34.53
2022-11-14T21:43:56.379Z,35.75
2022-11-14T21:48:59.458Z,35.90
2022-11-14T21:54:07.161Z,36.63
2022-11-14T21:59:21.657Z,35.00
2022-11-14T22:04:26.922Z,37.05
2022-11-14T22:09:33.713Z,38.50
2022-11-14T22:14:51.945Z,37.38
2022-11-14T22:20:01.647Z,38.25
2022-11-14T22:25:06.546Z,41.08
2022-11-14T22:30:11.789Z,35.30
2022-11-14T22:35:15.032Z,29.23
2022-11-14T22:40:18.540Z,33.15
2022-11-14T22:45:23.701Z,29.70
2022-11-14T22:50:27.874Z,26.08
2022-11-14T22:55:32.119Z,24.75
2022-11-14T23:00:36.778Z,24.85
2022-11-14T23:05:40.810Z,29.63
2022-11-14T23:10:49.445Z,23.85
2022-11-14T23:15:54.667Z,26.60
2022-11-14T23:20:58.093Z,25.80
2022-11-14T23:31:05.657Z,26.42
2022-11-14T23:36:08.706Z,23.80
2022-11-14T23:41:17.218Z,23.33
2022-11-14T23:46:22.047Z,25.10
2022-11-14T23:51:27.081Z,23.42
2022-11-14T23:56:29.501Z,24.92
